createdAt,value
2022-09-30T00:01:54.311Z,56.37
2022-09-30T00:04:24.688Z,56.72
2022-09-30T00:06:54.160Z,56.60
2022-09-30T00:09:22.869Z,56.56
2022-09-30T00:11:51.477Z,56.77
2022-09-30T00:14:22.331Z,56.88
2022-09-30T00:16:50.402Z,56.77
2022-09-30T00:19:18.535Z,57.22
2022-09-30T00:21:46.378Z,56.94
2022-09-30T00:24:14.248Z,57.29
2022-09-30T00:26:42.085Z,57.18
2022-09-30T00:29:10.967Z,57.33
2022-09-30T00:31:39.547Z,57.15
2022-09-30T00:34:08.005Z,57.40
2022-09-30T00:36:43.700Z,57.21
2022-09-30T00:39:16.517Z,57.59
2022-09-30T00:41:47.890Z,57.39
2022-09-30T00:44:43.931Z,57.30
2022-09-30T00:47:45.425Z,57.19
2022-09-30T00:50:22.791Z,57.19
2022-09-30T00:53:20.636Z,56.90
2022-09-30T00:56:07.616Z,56.64
2022-09-30T00:59:02.607Z,56.88
2022-09-30T01:01:32.100Z,56.97
2022-09-30T01:04:06.194Z,57.19
2022-09-30T01:06:33.985Z,57.04
2022-09-30T01:09:01.986Z,57.01
2022-09-30T01:11:30.158Z,56.98
2022-09-30T01:14:03.202Z,57.11
2022-09-30T01:17:00.665Z,56.90
2022-09-30T01:19:39.980Z,57.01
2022-09-30T01:22:16.719Z,57.22
2022-09-30T01:25:07.019Z,56.92
2022-09-30T01:27:55.736Z,57.05
2022-09-30T01:30:57.675Z,57.20
2022-09-30T01:33:40.659Z,56.92
2022-09-30T01:36:52.144Z,56.94
2022-09-30T01:39:37.825Z,57.22
2022-09-30T01:42:40.831Z,57.02
2022-09-30T01:46:03.344Z,57.10
2022-09-30T01:48:53.628Z,57.23
2022-09-30T01:51:45.917Z,57.12
2022-09-30T01:55:03.516Z,57.30
2022-09-30T01:58:09.689Z,57.03
2022-09-30T02:00:42.340Z,57.55
2022-09-30T02:03:24.467Z,57.27
2022-09-30T02:06:06.738Z,57.60
2022-09-30T02:09:03.652Z,57.39
2022-09-30T02:11:38.469Z,57.44
2022-09-30T02:14:18.086Z,57.45
2022-09-30T02:17:39.735Z,57.44
2022-09-30T02:20:22.386Z,57.52
2022-09-30T02:23:04.021Z,57.13
2022-09-30T02:25:41.012Z,57.35
2022-09-30T02:28:17.549Z,57.46
2022-09-30T02:30:50.688Z,57.36
2022-09-30T02:33:32.458Z,57.84
2022-09-30T02:36:08.133Z,57.92
2022-09-30T02:38:44.457Z,57.86
2022-09-30T02:41:23.825Z,57.54
2022-09-30T02:43:53.693Z,57.76
2022-09-30T02:46:32.200Z,57.52
2022-09-30T02:49:26.237Z,57.64
2022-09-30T02:52:02.722Z,57.79
2022-09-30T02:55:25.640Z,57.55
2022-09-30T02:58:11.197Z,57.61
2022-09-30T03:00:39.715Z,57.37
2022-09-30T03:03:38.995Z,57.64
2022-09-30T03:06:07.578Z,56.98
2022-09-30T03:08:35.716Z,57.42
2022-09-30T03:11:05.291Z,57.46
2022-09-30T03:14:00.159Z,57.71
2022-09-30T03:17:05.436Z,57.61
2022-09-30T03:20:08.443Z,57.28
2022-09-30T03:22:45.365Z,57.42
2022-09-30T03:25:16.492Z,57.93
2022-09-30T03:28:16.411Z,57.71
2022-09-30T03:31:37.847Z,57.42
2022-09-30T03:34:43.847Z,57.14
2022-09-30T03:38:16.285Z,57.44
2022-09-30T03:40:53.857Z,57.68
2022-09-30T03:43:41.626Z,57.85
2022-09-30T03:46:27.528Z,57.94
2022-09-30T03:49:01.378Z,57.72
2022-09-30T03:51:30.119Z,57.72
2022-09-30T03:53:59.209Z,57.98
2022-09-30T03:56:30.093Z,57.62
2022-09-30T03:58:58.850Z,58.02
2022-09-30T04:01:27.163Z,57.67
2022-09-30T04:03:55.065Z,57.95
2022-09-30T04:06:25.203Z,57.55
2022-09-30T04:08:54.137Z,57.78
2022-09-30T04:11:21.951Z,57.62
2022-09-30T04:13:49.780Z,57.55
2022-09-30T04:16:17.603Z,57.38
2022-09-30T04:18:45.396Z,57.69
2022-09-30T04:21:15.152Z,57.79
2022-09-30T04:23:43.546Z,57.32
2022-09-30T04:26:15.241Z,57.92
2022-09-30T04:28:43.912Z,57.60
2022-09-30T04:31:13.880Z,57.41
2022-09-30T04:33:41.697Z,57.68
2022-09-30T04:36:10.473Z,57.53
2022-09-30T04:38:38.351Z,57.58
2022-09-30T04:41:07.687Z,57.78
2022-09-30T04:43:35.490Z,57.92
2022-09-30T04:46:03.365Z,58.51
2022-09-30T04:48:31.519Z,58.28
2022-09-30T04:51:02.397Z,58.57
2022-09-30T04:53:30.397Z,58.44
2022-09-30T04:56:01.668Z,58.17
2022-09-30T04:58:34.703Z,58.51
2022-09-30T05:01:11.025Z,57.91
2022-09-30T05:03:39.915Z,58.01
2022-09-30T05:06:08.224Z,57.94
2022-09-30T05:08:36.439Z,58.05
2022-09-30T05:11:12.347Z,57.99
2022-09-30T05:13:41.221Z,57.80
2022-09-30T05:16:10.471Z,58.33
2022-09-30T05:18:45.657Z,58.32
2022-09-30T05:21:20.635Z,58.36
2022-09-30T05:23:48.905Z,58.31
2022-09-30T05:26:16.852Z,57.71
2022-09-30T05:28:44.824Z,57.96
2022-09-30T05:31:13.637Z,57.89
2022-09-30T05:33:42.068Z,58.33
2022-09-30T05:36:14.671Z,58.13
2022-09-30T05:38:42.752Z,58.26
2022-09-30T05:41:15.021Z,58.44
2022-09-30T05:43:48.003Z,58.41
2022-09-30T05:46:20.448Z,58.00
2022-09-30T05:48:48.359Z,58.38
2022-09-30T05:51:16.137Z,58.01
2022-09-30T05:53:44.890Z,58.15
2022-09-30T05:56:12.799Z,58.44
2022-09-30T05:58:42.133Z,58.31
2022-09-30T06:01:14.460Z,58.28
2022-09-30T06:03:46.928Z,58.25
2022-09-30T06:06:15.669Z,58.09
2022-09-30T06:08:44.562Z,58.23
2022-09-30T06:11:18.092Z,58.09
2022-09-30T06:13:47.590Z,57.84
2022-09-30T06:16:18.414Z,58.13
2022-09-30T06:18:46.694Z,58.43
2022-09-30T06:21:17.002Z,58.29
2022-09-30T06:23:45.253Z,58.71
2022-09-30T06:26:14.495Z,58.70
2022-09-30T06:28:43.035Z,58.61
2022-09-30T06:31:11.650Z,58.66
2022-09-30T06:33:39.687Z,58.67
2022-09-30T06:36:07.591Z,58.54
2022-09-30T06:38:37.257Z,58.47
2022-09-30T06:41:06.145Z,58.69
2022-09-30T06:43:41.422Z,58.53
2022-09-30T06:46:17.638Z,58.68
2022-09-30T06:49:06.148Z,58.73
2022-09-30T06:51:38.799Z,58.05
2022-09-30T06:54:07.972Z,58.35
2022-09-30T06:56:37.017Z,58.64
2022-09-30T06:59:04.844Z,58.30
2022-09-30T07:01:32.677Z,58.38
2022-09-30T07:04:02.819Z,58.68
2022-09-30T07:06:31.297Z,58.80
2022-09-30T07:08:59.097Z,58.97
2022-09-30T07:11:26.934Z,58.97
2022-09-30T07:13:55.518Z,58.68
2022-09-30T07:16:25.769Z,59.13
2022-09-30T07:18:54.421Z,58.88
2022-09-30T07:21:22.309Z,58.95
2022-09-30T07:23:52.820Z,58.96
2022-09-30T07:26:24.219Z,58.88
2022-09-30T07:28:52.821Z,59.11
2022-09-30T07:31:33.473Z,58.85
2022-09-30T07:34:07.292Z,59.16
2022-09-30T07:36:37.990Z,58.60
2022-09-30T07:39:09.952Z,58.93
2022-09-30T07:41:40.167Z,58.69
2022-09-30T07:44:14.616Z,58.76
2022-09-30T07:46:44.827Z,58.77
2022-09-30T07:49:25.485Z,58.65
2022-09-30T07:51:58.790Z,58.71
2022-09-30T07:54:31.055Z,59.03
2022-09-30T07:57:16.715Z,59.00
2022-09-30T07:59:44.670Z,58.85
2022-09-30T08:02:18.669Z,59.38
2022-09-30T08:04:47.270Z,58.92
2022-09-30T08:07:18.099Z,59.11
2022-09-30T08:09:46.005Z,58.86
2022-09-30T08:12:13.859Z,59.14
2022-09-30T08:14:41.806Z,59.02
2022-09-30T08:17:09.641Z,58.84
2022-09-30T08:19:38.285Z,58.62
2022-09-30T08:22:06.615Z,58.38
2022-09-30T08:24:34.734Z,58.53
2022-09-30T08:27:02.616Z,58.53
2022-09-30T08:32:18.923Z,58.29
2022-09-30T08:34:46.818Z,58.08
2022-09-30T08:37:14.589Z,58.22
2022-09-30T08:39:43.529Z,57.98
2022-09-30T08:42:36.623Z,57.93
2022-09-30T08:46:07.580Z,57.93
2022-09-30T08:48:50.262Z,57.75
2022-09-30T08:51:45.370Z,57.85
2022-09-30T08:54:22.857Z,57.44
2022-09-30T08:56:51.349Z,57.19
2022-09-30T08:59:30.041Z,57.08
2022-09-30T09:02:21.921Z,57.16
2022-09-30T09:04:54.644Z,56.60
2022-09-30T09:07:33.436Z,56.77
2022-09-30T09:10:24.183Z,56.43
2022-09-30T09:13:09.607Z,56.59
2022-09-30T09:16:18.637Z,56.29
2022-09-30T09:19:11.870Z,56.45
2022-09-30T09:22:01.883Z,56.56
2022-09-30T09:24:40.986Z,56.27
2022-09-30T09:27:54.825Z,56.43
2022-09-30T09:30:25.449Z,56.13
2022-09-30T09:32:58.273Z,55.98
2022-09-30T09:35:55.570Z,56.27
2022-09-30T09:38:56.015Z,56.24
2022-09-30T09:41:33.831Z,56.61
2022-09-30T09:44:19.514Z,56.19
2022-09-30T09:47:05.751Z,56.17
2022-09-30T09:49:37.153Z,56.13
2022-09-30T09:52:13.907Z,55.85
2022-09-30T09:54:52.673Z,56.05
2022-09-30T09:57:24.981Z,55.93
2022-09-30T10:02:31.732Z,55.84
2022-09-30T10:05:03.996Z,55.83
2022-09-30T10:07:34.015Z,56.05
2022-09-30T10:10:23.078Z,56.17
2022-09-30T10:12:51.858Z,56.03
2022-09-30T10:15:26.428Z,55.59
2022-09-30T10:17:59.207Z,55.81
2022-09-30T10:20:36.495Z,55.63
2022-09-30T10:23:31.902Z,55.65
2022-09-30T10:29:05.139Z,54.84
2022-09-30T10:31:42.395Z,54.54
2022-09-30T10:34:30.691Z,54.71
2022-09-30T10:37:03.084Z,54.52
2022-09-30T10:39:36.297Z,54.08
2022-09-30T10:42:07.454Z,53.78
2022-09-30T10:44:56.541Z,53.95
2022-09-30T10:47:27.286Z,53.35
2022-09-30T10:50:05.442Z,53.47
2022-09-30T10:52:56.339Z,53.37
2022-09-30T10:55:34.739Z,53.70
2022-09-30T10:58:25.390Z,53.37
2022-09-30T11:01:19.722Z,53.42
2022-09-30T11:04:24.661Z,53.58
2022-09-30T11:07:01.621Z,53.03
2022-09-30T11:09:46.201Z,52.80
2022-09-30T11:12:45.270Z,53.03
2022-09-30T11:15:24.539Z,52.36
2022-09-30T11:18:05.843Z,51.97
2022-09-30T11:20:54.421Z,52.02
2022-09-30T11:23:36.883Z,50.91
2022-09-30T11:26:40.332Z,51.16
2022-09-30T11:29:44.124Z,51.26
2022-09-30T11:32:55.732Z,50.62
2022-09-30T11:36:01.828Z,49.84
2022-09-30T11:38:48.566Z,49.59
2022-09-30T11:41:38.888Z,49.87
2022-09-30T11:44:51.650Z,49.98
2022-09-30T11:47:26.136Z,49.49
2022-09-30T11:50:08.797Z,48.87
2022-09-30T11:53:18.569Z,49.18
2022-09-30T11:56:35.020Z,49.20
2022-09-30T11:59:13.540Z,47.74
2022-09-30T12:01:46.183Z,47.33
2022-09-30T12:04:29.467Z,47.42
2022-09-30T12:07:09.025Z,47.50
2022-09-30T12:09:48.626Z,46.93
2022-09-30T12:12:19.242Z,47.02
2022-09-30T12:15:01.148Z,47.04
2022-09-30T12:17:44.141Z,47.08
2022-09-30T12:20:53.811Z,47.48
2022-09-30T12:23:55.117Z,47.02
2022-09-30T12:26:22.938Z,45.86
2022-09-30T12:29:32.502Z,45.76
2022-09-30T12:32:25.148Z,45.80
2022-09-30T12:35:43.876Z,46.11
2022-09-30T12:38:51.163Z,45.76
2022-09-30T12:41:49.247Z,45.31
2022-09-30T12:45:14.697Z,45.81
2022-09-30T12:47:57.442Z,45.42
2022-09-30T12:50:42.429Z,45.06
2022-09-30T12:53:39.648Z,45.01
2022-09-30T12:56:13.353Z,44.38
2022-09-30T12:58:48.576Z,45.14
2022-09-30T13:01:23.485Z,44.16
2022-09-30T13:04:00.085Z,43.76
2022-09-30T13:06:47.701Z,43.80
2022-09-30T13:09:22.819Z,43.07
2022-09-30T13:11:56.811Z,43.13
2022-09-30T13:14:43.398Z,43.25
2022-09-30T13:17:11.431Z,42.78
2022-09-30T13:19:47.696Z,42.74
2022-09-30T13:22:21.316Z,42.76
2022-09-30T13:24:58.116Z,43.57
2022-09-30T13:27:50.018Z,42.37
2022-09-30T13:30:18.150Z,41.12
2022-09-30T13:33:02.441Z,41.63
2022-09-30T13:35:33.970Z,40.70
2022-09-30T13:38:14.646Z,41.38
2022-09-30T13:41:02.772Z,40.98
2022-09-30T13:44:03.362Z,41.32
2022-09-30T13:46:59.256Z,40.81
2022-09-30T13:49:43.763Z,40.26
2022-09-30T13:52:28.972Z,40.34
2022-09-30T13:55:04.032Z,40.16
2022-09-30T13:58:03.330Z,41.23
2022-09-30T14:01:03.080Z,40.96
2022-09-30T14:04:04.122Z,41.03
2022-09-30T14:07:10.603Z,41.38
2022-09-30T14:10:29.090Z,41.48
2022-09-30T14:13:27.853Z,40.45
2022-09-30T14:16:48.136Z,41.10
2022-09-30T14:19:46.271Z,40.63
2022-09-30T14:22:15.702Z,40.39
2022-09-30T14:24:43.722Z,40.78
2022-09-30T14:27:20.243Z,40.25
2022-09-30T14:30:02.316Z,40.32
2022-09-30T14:32:54.165Z,40.75
2022-09-30T14:35:31.949Z,40.59
2022-09-30T14:38:28.000Z,40.59
2022-09-30T14:41:14.475Z,40.17
2022-09-30T14:43:46.131Z,40.16
2022-09-30T14:46:26.754Z,40.36
2022-09-30T14:48:59.100Z,40.15
2022-09-30T14:51:29.331Z,40.35
2022-09-30T14:54:02.287Z,40.99
2022-09-30T14:56:35.473Z,40.55
2022-09-30T14:59:34.700Z,40.91
2022-09-30T15:02:20.397Z,40.95
2022-09-30T15:04:56.988Z,40.38
2022-09-30T15:07:27.100Z,40.53
2022-09-30T15:10:01.164Z,40.04
2022-09-30T15:12:29.040Z,40.37
2022-09-30T15:14:59.904Z,40.31
2022-09-30T15:17:37.800Z,40.85
2022-09-30T15:20:31.203Z,40.94
2022-09-30T15:23:03.694Z,40.94
2022-09-30T15:25:31.899Z,41.01
2022-09-30T15:28:00.063Z,41.25
2022-09-30T15:30:29.540Z,41.42
2022-09-30T15:33:04.528Z,41.23
2022-09-30T15:35:36.031Z,41.14
2022-09-30T15:38:26.829Z,41.22
2022-09-30T15:41:05.120Z,41.05
2022-09-30T15:43:37.058Z,40.73
2022-09-30T15:46:25.223Z,40.97
2022-09-30T15:48:59.101Z,40.63
2022-09-30T15:51:39.449Z,40.36
2022-09-30T15:54:16.004Z,40.25
2022-09-30T15:56:44.490Z,40.53
2022-09-30T15:59:14.729Z,40.85
2022-09-30T16:01:46.736Z,40.80
2022-09-30T16:04:17.559Z,41.26
2022-09-30T16:06:53.767Z,41.04
2022-09-30T16:09:34.025Z,41.09
2022-09-30T16:12:13.961Z,41.25
2022-09-30T16:15:06.443Z,41.95
2022-09-30T16:17:39.258Z,42.55
2022-09-30T16:20:14.744Z,43.12
2022-09-30T16:22:42.422Z,43.50
2022-09-30T16:25:31.776Z,43.59
2022-09-30T16:28:14.615Z,44.10
2022-09-30T16:30:49.536Z,44.33
2022-09-30T16:33:17.786Z,44.75
2022-09-30T16:35:47.496Z,44.79
2022-09-30T16:38:18.185Z,44.90
2022-09-30T16:40:46.061Z,45.13
2022-09-30T16:43:13.921Z,45.47
2022-09-30T16:45:42.523Z,45.38
2022-09-30T16:48:18.650Z,45.10
2022-09-30T16:50:56.477Z,45.37
2022-09-30T16:53:24.312Z,45.42
2022-09-30T16:55:52.294Z,45.60
2022-09-30T16:58:20.122Z,46.01
2022-09-30T17:00:48.031Z,46.21
2022-09-30T17:03:18.412Z,46.01
2022-09-30T17:05:53.076Z,46.14
2022-09-30T17:08:23.937Z,46.30
2022-09-30T17:10:51.817Z,46.46
2022-09-30T17:13:19.811Z,46.76
2022-09-30T17:15:50.747Z,46.93
2022-09-30T17:18:19.683Z,47.01
2022-09-30T17:20:52.801Z,47.14
2022-09-30T17:23:22.884Z,47.24
2022-09-30T17:25:51.529Z,47.30
2022-09-30T17:28:19.381Z,47.39
2022-09-30T17:30:49.335Z,47.84
2022-09-30T17:33:19.908Z,47.65
2022-09-30T17:36:02.322Z,47.80
2022-09-30T17:38:30.631Z,48.17
2022-09-30T17:41:17.829Z,48.39
2022-09-30T17:43:45.927Z,48.54
2022-09-30T17:46:19.300Z,48.87
2022-09-30T17:48:47.710Z,48.61
2022-09-30T17:51:16.796Z,48.88
2022-09-30T17:53:45.427Z,49.03
2022-09-30T17:56:20.299Z,49.13
2022-09-30T17:58:50.867Z,49.39
2022-09-30T18:01:21.393Z,49.67
2022-09-30T18:03:53.121Z,49.68
2022-09-30T18:06:21.664Z,49.78
2022-09-30T18:08:55.889Z,50.03
2022-09-30T18:11:26.256Z,50.09
2022-09-30T18:13:59.743Z,49.99
2022-09-30T18:16:30.919Z,50.10
2022-09-30T18:19:00.844Z,50.21
2022-09-30T18:21:30.039Z,50.29
2022-09-30T18:23:59.060Z,50.35
2022-09-30T18:26:33.218Z,50.07
2022-09-30T18:29:03.726Z,50.63
2022-09-30T18:31:37.486Z,50.56
2022-09-30T18:34:06.990Z,50.64
2022-09-30T18:36:37.413Z,51.03
2022-09-30T18:39:05.405Z,51.35
2022-09-30T18:41:35.749Z,51.59
2022-09-30T18:44:03.840Z,51.69
2022-09-30T18:46:32.148Z,51.93
2022-09-30T18:48:59.977Z,51.96
2022-09-30T18:51:28.616Z,52.17
2022-09-30T18:53:59.884Z,52.02
2022-09-30T18:56:31.958Z,51.98
2022-09-30T18:59:04.644Z,52.04
2022-09-30T19:01:34.111Z,52.08
2022-09-30T19:04:03.484Z,51.94
2022-09-30T19:06:31.676Z,52.23
2022-09-30T19:08:59.484Z,52.30
2022-09-30T19:11:30.337Z,52.33
2022-09-30T19:14:01.391Z,52.59
2022-09-30T19:16:37.921Z,52.51
2022-09-30T19:19:10.490Z,52.61
2022-09-30T19:21:39.698Z,52.61
2022-09-30T19:24:09.420Z,52.66
2022-09-30T19:26:39.398Z,52.78
2022-09-30T19:29:09.715Z,52.59
2022-09-30T19:31:38.095Z,52.78
2022-09-30T19:34:06.447Z,52.84
2022-09-30T19:36:46.037Z,52.73
2022-09-30T19:39:17.094Z,52.87
2022-09-30T19:41:46.323Z,52.88
2022-09-30T19:44:18.835Z,52.90
2022-09-30T19:46:55.653Z,52.91
2022-09-30T19:49:24.045Z,52.86
2022-09-30T19:51:52.873Z,52.94
2022-09-30T19:54:35.938Z,52.84
2022-09-30T19:57:05.939Z,52.78
2022-09-30T19:59:34.229Z,52.98
2022-09-30T20:02:02.465Z,53.08
2022-09-30T20:04:30.264Z,53.11
2022-09-30T20:06:58.027Z,53.33
2022-09-30T20:09:25.837Z,53.22
2022-09-30T20:11:53.578Z,53.38
2022-09-30T20:14:39.889Z,53.61
2022-09-30T20:17:07.770Z,53.72
2022-09-30T20:19:35.596Z,53.51
2022-09-30T20:22:04.761Z,53.61
2022-09-30T20:24:33.126Z,53.41
2022-09-30T20:27:00.874Z,53.75
2022-09-30T20:29:28.800Z,53.60
2022-09-30T20:31:57.224Z,53.61
2022-09-30T20:34:25.104Z,53.73
2022-09-30T20:36:52.841Z,53.86
2022-09-30T20:39:21.262Z,53.81
2022-09-30T20:41:50.708Z,53.82
2022-09-30T20:44:19.508Z,53.93
2022-09-30T20:46:47.277Z,54.01
2022-09-30T20:49:15.062Z,54.01
2022-09-30T20:51:42.911Z,53.96
2022-09-30T20:54:10.893Z,53.98
2022-09-30T20:57:02.763Z,53.98
2022-09-30T20:59:26.449Z,53.90
2022-09-30T21:01:54.255Z,53.91
2022-09-30T21:04:22.072Z,54.17
2022-09-30T21:06:49.851Z,54.13
2022-09-30T21:09:17.714Z,54.04
2022-09-30T21:11:45.434Z,54.09
2022-09-30T21:14:18.114Z,54.42
2022-09-30T21:16:46.083Z,54.36
2022-09-30T21:19:13.962Z,54.43
2022-09-30T21:21:41.782Z,54.49
2022-09-30T21:24:09.941Z,54.50
2022-09-30T21:26:37.739Z,54.65
2022-09-30T21:29:05.685Z,54.67
2022-09-30T21:31:35.312Z,54.75
2022-09-30T21:34:04.046Z,54.49
2022-09-30T21:36:32.212Z,54.49
2022-09-30T21:39:02.385Z,54.23
2022-09-30T21:41:32.544Z,54.29
2022-09-30T21:44:01.457Z,54.20
2022-09-30T21:46:30.281Z,54.49
2022-09-30T21:49:16.025Z,54.50
2022-09-30T21:51:43.928Z,54.38
2022-09-30T21:54:13.759Z,54.27
2022-09-30T21:56:43.060Z,54.43
2022-09-30T21:59:12.838Z,54.45
2022-09-30T22:01:40.979Z,54.39
2022-09-30T22:04:09.284Z,54.54
2022-09-30T22:06:37.096Z,54.41
2022-09-30T22:09:05.310Z,54.59
2022-09-30T22:11:33.536Z,54.72
2022-09-30T22:14:01.867Z,54.70
2022-09-30T22:16:36.845Z,54.80
2022-09-30T22:19:07.424Z,54.70
2022-09-30T22:21:37.664Z,54.69
2022-09-30T22:24:08.053Z,54.50
2022-09-30T22:26:37.152Z,54.46
2022-09-30T22:29:11.329Z,54.51
2022-09-30T22:31:39.681Z,54.40
2022-09-30T22:34:29.123Z,54.13
2022-09-30T22:37:15.637Z,54.35
2022-09-30T22:39:43.555Z,54.17
2022-09-30T22:42:11.312Z,54.62
2022-09-30T22:44:39.287Z,54.38
2022-09-30T22:47:09.870Z,54.26
2022-09-30T22:49:37.638Z,54.40
2022-09-30T22:52:06.724Z,54.28
2022-09-30T22:54:36.693Z,54.42
2022-09-30T22:57:07.832Z,54.18
2022-09-30T22:59:39.147Z,54.34
2022-09-30T23:02:07.009Z,54.34
2022-09-30T23:04:34.801Z,54.30
2022-09-30T23:07:02.591Z,54.39
2022-09-30T23:09:31.207Z,54.83
2022-09-30T23:11:59.240Z,54.57
2022-09-30T23:14:27.018Z,54.28
2022-09-30T23:16:54.848Z,54.43
2022-09-30T23:19:22.716Z,54.76
2022-09-30T23:21:50.466Z,54.54
2022-09-30T23:24:18.339Z,54.65
2022-09-30T23:26:46.157Z,54.57
2022-09-30T23:29:15.958Z,54.98
2022-09-30T23:31:43.838Z,54.93
2022-09-30T23:34:12.096Z,54.96
2022-09-30T23:36:40.467Z,54.79
2022-09-30T23:39:18.546Z,54.77
2022-09-30T23:41:47.902Z,54.64
2022-09-30T23:44:18.999Z,55.17
2022-09-30T23:47:06.624Z,55.11
2022-09-30T23:49:38.482Z,55.14
2022-09-30T23:52:12.574Z,55.01
2022-09-30T23:54:42.572Z,54.91
2022-09-30T23:57:11.394Z,55.39
2022-09-30T23:59:39.440Z,55.09
